sensor_id;sensor_type;location;lat;lon;timestamp;P1;durP1;ratioP1;P2;durP2;ratioP2
55220;SDS011;41089;51.448;6.604;2023-05-03T00:05:08;9.03;;;5.10;;
55220;SDS011;41089;51.448;6.604;2023-05-03T00:11:11;7.28;;;4.30;;
55220;SDS011;41089;51.448;6.604;2023-05-03T00:17:11;8.43;;;5.20;;
55220;SDS011;41089;51.448;6.604;2023-05-03T00:23:12;8.57;;;5.07;;
55220;SDS011;41089;51.448;6.604;2023-05-03T00:29:12;8.75;;;4.57;;
55220;SDS011;41089;51.448;6.604;2023-05-03T00:35:14;6.32;;;4.68;;
55220;SDS011;41089;51.448;6.604;2023-05-03T00:41:15;7.18;;;4.50;;
55220;SDS011;41089;51.448;6.604;2023-05-03T00:47:15;5.45;;;4.22;;
55220;SDS011;41089;51.448;6.604;2023-05-03T00:53:16;5.72;;;4.43;;
55220;SDS011;41089;51.448;6.604;2023-05-03T00:59:16;8.13;;;4.47;;
55220;SDS011;41089;51.448;6.604;2023-05-03T01:05:17;7.40;;;4.78;;
55220;SDS011;41089;51.448;6.604;2023-05-03T01:11:42;8.07;;;4.50;;
55220;SDS011;41089;51.448;6.604;2023-05-03T01:17:49;6.78;;;4.70;;
55220;SDS011;41089;51.448;6.604;2023-05-03T01:23:55;5.32;;;4.25;;
55220;SDS011;41089;51.448;6.604;2023-05-03T01:29:59;5.13;;;4.28;;
55220;SDS011;41089;51.448;6.604;2023-05-03T01:42:32;10.43;;;4.97;;
55220;SDS011;41089;51.448;6.604;2023-05-03T01:48:34;8.45;;;5.53;;
55220;SDS011;41089;51.448;6.604;2023-05-03T01:54:34;7.63;;;4.80;;
55220;SDS011;41089;51.448;6.604;2023-05-03T02:00:35;9.93;;;5.38;;
55220;SDS011;41089;51.448;6.604;2023-05-03T02:06:37;8.38;;;5.60;;
55220;SDS011;41089;51.448;6.604;2023-05-03T02:12:37;9.90;;;5.32;;
55220;SDS011;41089;51.448;6.604;2023-05-03T02:18:37;8.43;;;4.97;;
55220;SDS011;41089;51.448;6.604;2023-05-03T02:24:38;5.47;;;4.80;;
55220;SDS011;41089;51.448;6.604;2023-05-03T02:30:39;7.47;;;4.72;;
55220;SDS011;41089;51.448;6.604;2023-05-03T02:36:39;14.68;;;4.97;;
55220;SDS011;41089;51.448;6.604;2023-05-03T02:42:40;7.97;;;4.63;;
55220;SDS011;41089;51.448;6.604;2023-05-03T02:48:40;6.97;;;4.83;;
55220;SDS011;41089;51.448;6.604;2023-05-03T02:54:41;7.87;;;5.03;;
55220;SDS011;41089;51.448;6.604;2023-05-03T03:00:41;7.30;;;4.28;;
55220;SDS011;41089;51.448;6.604;2023-05-03T03:06:41;5.90;;;4.93;;
55220;SDS011;41089;51.448;6.604;2023-05-03T03:12:42;6.22;;;4.88;;
55220;SDS011;41089;51.448;6.604;2023-05-03T03:18:43;7.55;;;5.85;;
55220;SDS011;41089;51.448;6.604;2023-05-03T03:24:44;7.30;;;5.40;;
55220;SDS011;41089;51.448;6.604;2023-05-03T03:30:44;9.18;;;5.00;;
55220;SDS011;41089;51.448;6.604;2023-05-03T03:36:45;7.67;;;5.33;;
55220;SDS011;41089;51.448;6.604;2023-05-03T03:42:45;8.50;;;5.28;;
55220;SDS011;41089;51.448;6.604;2023-05-03T03:48:46;8.80;;;5.28;;
55220;SDS011;41089;51.448;6.604;2023-05-03T03:54:46;10.80;;;5.37;;
55220;SDS011;41089;51.448;6.604;2023-05-03T04:00:46;11.13;;;4.33;;
55220;SDS011;41089;51.448;6.604;2023-05-03T04:06:47;7.68;;;4.20;;
55220;SDS011;41089;51.448;6.604;2023-05-03T04:12:47;5.10;;;3.97;;
55220;SDS011;41089;51.448;6.604;2023-05-03T04:18:48;5.07;;;4.15;;
55220;SDS011;41089;51.448;6.604;2023-05-03T04:24:49;7.10;;;4.22;;
55220;SDS011;41089;51.448;6.604;2023-05-03T04:30:50;10.57;;;4.55;;
55220;SDS011;41089;51.448;6.604;2023-05-03T04:36:51;7.97;;;4.40;;
55220;SDS011;41089;51.448;6.604;2023-05-03T04:42:51;6.88;;;5.15;;
55220;SDS011;41089;51.448;6.604;2023-05-03T04:48:52;6.30;;;4.53;;
55220;SDS011;41089;51.448;6.604;2023-05-03T04:54:52;11.07;;;4.75;;
55220;SDS011;41089;51.448;6.604;2023-05-03T05:00:53;9.20;;;5.28;;
55220;SDS011;41089;51.448;6.604;2023-05-03T05:06:53;10.32;;;5.38;;
55220;SDS011;41089;51.448;6.604;2023-05-03T05:12:54;14.30;;;6.47;;
55220;SDS011;41089;51.448;6.604;2023-05-03T05:18:54;12.55;;;5.65;;
55220;SDS011;41089;51.448;6.604;2023-05-03T05:24:55;9.80;;;5.47;;
55220;SDS011;41089;51.448;6.604;2023-05-03T05:30:57;11.35;;;5.38;;
55220;SDS011;41089;51.448;6.604;2023-05-03T05:36:57;7.00;;;5.63;;
55220;SDS011;41089;51.448;6.604;2023-05-03T05:42:57;11.95;;;6.80;;
55220;SDS011;41089;51.448;6.604;2023-05-03T05:48:58;9.80;;;5.22;;
55220;SDS011;41089;51.448;6.604;2023-05-03T05:54:59;9.68;;;5.38;;
55220;SDS011;41089;51.448;6.604;2023-05-03T06:00:59;8.00;;;6.17;;
55220;SDS011;41089;51.448;6.604;2023-05-03T06:07:04;10.23;;;5.93;;
55220;SDS011;41089;51.448;6.604;2023-05-03T06:13:04;8.18;;;5.72;;
55220;SDS011;41089;51.448;6.604;2023-05-03T06:19:06;10.48;;;6.32;;
55220;SDS011;41089;51.448;6.604;2023-05-03T06:25:06;14.20;;;6.17;;
55220;SDS011;41089;51.448;6.604;2023-05-03T06:31:07;12.15;;;7.10;;
55220;SDS011;41089;51.448;6.604;2023-05-03T06:37:08;10.10;;;6.47;;
55220;SDS011;41089;51.448;6.604;2023-05-03T06:43:08;10.98;;;7.47;;
55220;SDS011;41089;51.448;6.604;2023-05-03T06:49:09;11.87;;;6.43;;
55220;SDS011;41089;51.448;6.604;2023-05-03T06:55:09;9.57;;;5.73;;
55220;SDS011;41089;51.448;6.604;2023-05-03T07:01:10;11.80;;;7.05;;
55220;SDS011;41089;51.448;6.604;2023-05-03T07:07:14;12.73;;;6.15;;
55220;SDS011;41089;51.448;6.604;2023-05-03T07:20:12;9.55;;;5.25;;
55220;SDS011;41089;51.448;6.604;2023-05-03T07:26:12;13.20;;;6.22;;
55220;SDS011;41089;51.448;6.604;2023-05-03T07:32:13;9.95;;;5.57;;
55220;SDS011;41089;51.448;6.604;2023-05-03T07:38:13;10.37;;;4.33;;
55220;SDS011;41089;51.448;6.604;2023-05-03T07:44:14;6.63;;;3.97;;
55220;SDS011;41089;51.448;6.604;2023-05-03T07:50:14;9.98;;;3.85;;
55220;SDS011;41089;51.448;6.604;2023-05-03T07:56:17;12.40;;;3.60;;
55220;SDS011;41089;51.448;6.604;2023-05-03T08:02:20;10.35;;;4.60;;
55220;SDS011;41089;51.448;6.604;2023-05-03T08:08:20;8.07;;;3.60;;
55220;SDS011;41089;51.448;6.604;2023-05-03T08:14:23;7.30;;;2.45;;
55220;SDS011;41089;51.448;6.604;2023-05-03T08:20:23;8.00;;;3.35;;
55220;SDS011;41089;51.448;6.604;2023-05-03T08:26:26;9.68;;;3.88;;
55220;SDS011;41089;51.448;6.604;2023-05-03T08:39:03;8.02;;;3.85;;
55220;SDS011;41089;51.448;6.604;2023-05-03T08:45:08;7.13;;;3.38;;
55220;SDS011;41089;51.448;6.604;2023-05-03T08:51:10;7.25;;;3.65;;
55220;SDS011;41089;51.448;6.604;2023-05-03T08:57:12;5.07;;;3.33;;
55220;SDS011;41089;51.448;6.604;2023-05-03T09:03:13;10.95;;;4.10;;
55220;SDS011;41089;51.448;6.604;2023-05-03T09:15:21;7.35;;;3.75;;
55220;SDS011;41089;51.448;6.604;2023-05-03T09:21:21;7.35;;;3.88;;
55220;SDS011;41089;51.448;6.604;2023-05-03T09:27:22;7.10;;;3.73;;
55220;SDS011;41089;51.448;6.604;2023-05-03T09:33:30;6.15;;;3.72;;
55220;SDS011;41089;51.448;6.604;2023-05-03T09:39:30;4.75;;;3.75;;
55220;SDS011;41089;51.448;6.604;2023-05-03T09:45:31;5.68;;;4.10;;
55220;SDS011;41089;51.448;6.604;2023-05-03T09:51:32;7.18;;;4.10;;
55220;SDS011;41089;51.448;6.604;2023-05-03T09:57:32;7.10;;;3.85;;
55220;SDS011;41089;51.448;6.604;2023-05-03T10:09:44;11.60;;;4.07;;
55220;SDS011;41089;51.448;6.604;2023-05-03T10:15:45;7.38;;;3.53;;
55220;SDS011;41089;51.448;6.604;2023-05-03T10:22:03;8.48;;;4.05;;
55220;SDS011;41089;51.448;6.604;2023-05-03T10:28:06;6.32;;;3.97;;
55220;SDS011;41089;51.448;6.604;2023-05-03T10:34:21;5.10;;;3.53;;
55220;SDS011;41089;51.448;6.604;2023-05-03T10:40:22;7.32;;;3.38;;
55220;SDS011;41089;51.448;6.604;2023-05-03T10:46:29;6.95;;;3.92;;
55220;SDS011;41089;51.448;6.604;2023-05-03T10:58:41;8.23;;;4.63;;
55220;SDS011;41089;51.448;6.604;2023-05-03T11:04:43;5.25;;;3.53;;
55220;SDS011;41089;51.448;6.604;2023-05-03T11:10:44;7.72;;;3.67;;
55220;SDS011;41089;51.448;6.604;2023-05-03T11:16:46;7.13;;;3.67;;
55220;SDS011;41089;51.448;6.604;2023-05-03T11:22:49;9.95;;;3.92;;
55220;SDS011;41089;51.448;6.604;2023-05-03T11:28:50;8.25;;;3.78;;
55220;SDS011;41089;51.448;6.604;2023-05-03T11:34:50;10.38;;;4.43;;
55220;SDS011;41089;51.448;6.604;2023-05-03T11:40:51;7.90;;;4.32;;
55220;SDS011;41089;51.448;6.604;2023-05-03T11:46:52;7.82;;;3.30;;
55220;SDS011;41089;51.448;6.604;2023-05-03T11:52:54;5.70;;;3.70;;
55220;SDS011;41089;51.448;6.604;2023-05-03T11:58:55;11.27;;;3.70;;
55220;SDS011;41089;51.448;6.604;2023-05-03T12:04:57;8.07;;;3.78;;
55220;SDS011;41089;51.448;6.604;2023-05-03T12:11:00;4.30;;;2.65;;
55220;SDS011;41089;51.448;6.604;2023-05-03T12:17:01;10.70;;;3.70;;
55220;SDS011;41089;51.448;6.604;2023-05-03T12:23:02;8.75;;;3.72;;
55220;SDS011;41089;51.448;6.604;2023-05-03T12:29:04;7.05;;;3.70;;
55220;SDS011;41089;51.448;6.604;2023-05-03T12:35:05;7.00;;;3.42;;
55220;SDS011;41089;51.448;6.604;2023-05-03T12:41:10;5.55;;;3.65;;
55220;SDS011;41089;51.448;6.604;2023-05-03T12:47:11;7.05;;;3.53;;
55220;SDS011;41089;51.448;6.604;2023-05-03T12:53:11;7.80;;;4.38;;
55220;SDS011;41089;51.448;6.604;2023-05-03T12:59:12;4.38;;;3.30;;
55220;SDS011;41089;51.448;6.604;2023-05-03T13:05:12;8.63;;;4.03;;
55220;SDS011;41089;51.448;6.604;2023-05-03T13:11:13;6.18;;;3.50;;
55220;SDS011;41089;51.448;6.604;2023-05-03T13:17:14;6.88;;;3.78;;
55220;SDS011;41089;51.448;6.604;2023-05-03T13:23:15;11.98;;;4.57;;
55220;SDS011;41089;51.448;6.604;2023-05-03T13:29:15;6.50;;;4.13;;
55220;SDS011;41089;51.448;6.604;2023-05-03T13:35:16;6.15;;;3.78;;
55220;SDS011;41089;51.448;6.604;2023-05-03T13:41:17;7.38;;;4.25;;
55220;SDS011;41089;51.448;6.604;2023-05-03T13:47:18;5.10;;;3.70;;
55220;SDS011;41089;51.448;6.604;2023-05-03T13:53:19;5.45;;;3.50;;
55220;SDS011;41089;51.448;6.604;2023-05-03T13:59:19;4.30;;;3.45;;
55220;SDS011;41089;51.448;6.604;2023-05-03T14:05:20;6.45;;;3.40;;
55220;SDS011;41089;51.448;6.604;2023-05-03T14:11:21;9.07;;;3.33;;
55220;SDS011;41089;51.448;6.604;2023-05-03T14:17:21;5.63;;;3.40;;
55220;SDS011;41089;51.448;6.604;2023-05-03T14:23:22;8.35;;;4.25;;
55220;SDS011;41089;51.448;6.604;2023-05-03T14:29:23;5.72;;;3.92;;
55220;SDS011;41089;51.448;6.604;2023-05-03T14:35:23;6.20;;;3.90;;
55220;SDS011;41089;51.448;6.604;2023-05-03T14:41:25;6.33;;;3.63;;
55220;SDS011;41089;51.448;6.604;2023-05-03T14:47:25;9.77;;;3.95;;
55220;SDS011;41089;51.448;6.604;2023-05-03T14:53:26;6.60;;;3.67;;
55220;SDS011;41089;51.448;6.604;2023-05-03T14:59:27;9.00;;;4.38;;
55220;SDS011;41089;51.448;6.604;2023-05-03T15:05:32;5.40;;;3.70;;
55220;SDS011;41089;51.448;6.604;2023-05-03T15:11:32;8.38;;;4.38;;
55220;SDS011;41089;51.448;6.604;2023-05-03T15:17:33;7.53;;;4.28;;
55220;SDS011;41089;51.448;6.604;2023-05-03T15:23:33;5.83;;;3.83;;
55220;SDS011;41089;51.448;6.604;2023-05-03T15:29:34;8.13;;;4.10;;
55220;SDS011;41089;51.448;6.604;2023-05-03T15:35:36;6.45;;;4.30;;
55220;SDS011;41089;51.448;6.604;2023-05-03T15:41:38;10.30;;;4.60;;
55220;SDS011;41089;51.448;6.604;2023-05-03T15:47:38;8.63;;;4.23;;
55220;SDS011;41089;51.448;6.604;2023-05-03T15:53:39;7.88;;;4.00;;
55220;SDS011;41089;51.448;6.604;2023-05-03T15:59:40;9.87;;;4.97;;
55220;SDS011;41089;51.448;6.604;2023-05-03T16:05:40;9.27;;;4.47;;
55220;SDS011;41089;51.448;6.604;2023-05-03T16:11:41;7.47;;;5.40;;
55220;SDS011;41089;51.448;6.604;2023-05-03T16:17:41;14.13;;;4.75;;
55220;SDS011;41089;51.448;6.604;2023-05-03T16:23:42;7.45;;;4.68;;
55220;SDS011;41089;51.448;6.604;2023-05-03T16:29:43;10.75;;;4.50;;
55220;SDS011;41089;51.448;6.604;2023-05-03T16:35:44;6.20;;;4.57;;
55220;SDS011;41089;51.448;6.604;2023-05-03T16:41:45;6.05;;;4.65;;
55220;SDS011;41089;51.448;6.604;2023-05-03T16:47:46;7.93;;;5.07;;
55220;SDS011;41089;51.448;6.604;2023-05-03T16:53:46;9.52;;;4.80;;
55220;SDS011;41089;51.448;6.604;2023-05-03T16:59:48;5.30;;;4.65;;
55220;SDS011;41089;51.448;6.604;2023-05-03T17:05:48;6.13;;;4.30;;
55220;SDS011;41089;51.448;6.604;2023-05-03T17:11:49;7.03;;;4.40;;
55220;SDS011;41089;51.448;6.604;2023-05-03T17:17:49;8.43;;;4.67;;
55220;SDS011;41089;51.448;6.604;2023-05-03T17:23:50;8.00;;;5.00;;
55220;SDS011;41089;51.448;6.604;2023-05-03T17:29:51;11.80;;;5.50;;
55220;SDS011;41089;51.448;6.604;2023-05-03T17:35:53;8.73;;;4.60;;
55220;SDS011;41089;51.448;6.604;2023-05-03T17:41:55;9.98;;;5.25;;
55220;SDS011;41089;51.448;6.604;2023-05-03T17:47:56;9.27;;;4.93;;
55220;SDS011;41089;51.448;6.604;2023-05-03T17:53:57;8.65;;;5.18;;
55220;SDS011;41089;51.448;6.604;2023-05-03T17:59:58;6.57;;;4.83;;
55220;SDS011;41089;51.448;6.604;2023-05-03T18:05:58;8.10;;;5.60;;
55220;SDS011;41089;51.448;6.604;2023-05-03T18:11:59;10.38;;;5.10;;
55220;SDS011;41089;51.448;6.604;2023-05-03T18:18:01;9.38;;;4.90;;
55220;SDS011;41089;51.448;6.604;2023-05-03T18:24:02;7.50;;;5.07;;
55220;SDS011;41089;51.448;6.604;2023-05-03T18:30:05;9.25;;;5.00;;
55220;SDS011;41089;51.448;6.604;2023-05-03T18:36:06;8.93;;;4.63;;
55220;SDS011;41089;51.448;6.604;2023-05-03T18:42:11;8.32;;;5.00;;
55220;SDS011;41089;51.448;6.604;2023-05-03T18:48:14;9.77;;;4.95;;
55220;SDS011;41089;51.448;6.604;2023-05-03T18:54:14;11.43;;;6.10;;
55220;SDS011;41089;51.448;6.604;2023-05-03T19:00:15;8.10;;;4.88;;
55220;SDS011;41089;51.448;6.604;2023-05-03T19:06:17;8.73;;;6.03;;
55220;SDS011;41089;51.448;6.604;2023-05-03T19:12:18;7.28;;;5.20;;
55220;SDS011;41089;51.448;6.604;2023-05-03T19:18:18;8.30;;;5.32;;
55220;SDS011;41089;51.448;6.604;2023-05-03T19:24:19;9.18;;;5.00;;
55220;SDS011;41089;51.448;6.604;2023-05-03T19:30:19;11.77;;;4.87;;
55220;SDS011;41089;51.448;6.604;2023-05-03T19:36:20;12.32;;;5.45;;
55220;SDS011;41089;51.448;6.604;2023-05-03T19:42:20;8.25;;;4.35;;
55220;SDS011;41089;51.448;6.604;2023-05-03T19:48:21;9.03;;;4.90;;
55220;SDS011;41089;51.448;6.604;2023-05-03T19:54:21;8.93;;;4.83;;
55220;SDS011;41089;51.448;6.604;2023-05-03T20:00:23;9.82;;;6.03;;
55220;SDS011;41089;51.448;6.604;2023-05-03T20:06:26;10.90;;;5.25;;
55220;SDS011;41089;51.448;6.604;2023-05-03T20:12:29;9.57;;;5.72;;
55220;SDS011;41089;51.448;6.604;2023-05-03T20:18:30;9.50;;;4.60;;
55220;SDS011;41089;51.448;6.604;2023-05-03T20:24:30;9.80;;;4.72;;
55220;SDS011;41089;51.448;6.604;2023-05-03T20:30:31;9.17;;;4.80;;
55220;SDS011;41089;51.448;6.604;2023-05-03T20:36:31;10.18;;;4.93;;
55220;SDS011;41089;51.448;6.604;2023-05-03T20:42:32;12.55;;;4.53;;
55220;SDS011;41089;51.448;6.604;2023-05-03T20:48:33;8.80;;;4.55;;
55220;SDS011;41089;51.448;6.604;2023-05-03T20:54:34;12.13;;;4.88;;
55220;SDS011;41089;51.448;6.604;2023-05-03T21:00:35;12.23;;;5.18;;
55220;SDS011;41089;51.448;6.604;2023-05-03T21:06:35;10.37;;;4.87;;
55220;SDS011;41089;51.448;6.604;2023-05-03T21:12:37;7.03;;;4.57;;
55220;SDS011;41089;51.448;6.604;2023-05-03T21:18:37;7.88;;;5.63;;
55220;SDS011;41089;51.448;6.604;2023-05-03T21:24:37;12.00;;;4.50;;
55220;SDS011;41089;51.448;6.604;2023-05-03T21:30:38;10.03;;;4.87;;
55220;SDS011;41089;51.448;6.604;2023-05-03T21:36:41;12.27;;;4.93;;
55220;SDS011;41089;51.448;6.604;2023-05-03T21:42:42;11.00;;;4.32;;
55220;SDS011;41089;51.448;6.604;2023-05-03T21:48:43;15.57;;;4.95;;
55220;SDS011;41089;51.448;6.604;2023-05-03T21:54:43;12.27;;;4.30;;
55220;SDS011;41089;51.448;6.604;2023-05-03T22:00:43;11.00;;;5.00;;
55220;SDS011;41089;51.448;6.604;2023-05-03T22:06:44;10.05;;;4.97;;
55220;SDS011;41089;51.448;6.604;2023-05-03T22:12:44;9.63;;;4.60;;
55220;SDS011;41089;51.448;6.604;2023-05-03T22:18:45;12.90;;;5.33;;
55220;SDS011;41089;51.448;6.604;2023-05-03T22:24:45;12.77;;;4.60;;
55220;SDS011;41089;51.448;6.604;2023-05-03T22:30:46;6.13;;;4.18;;
55220;SDS011;41089;51.448;6.604;2023-05-03T22:36:46;13.30;;;4.70;;
55220;SDS011;41089;51.448;6.604;2023-05-03T22:42:47;8.23;;;3.85;;
55220;SDS011;41089;51.448;6.604;2023-05-03T22:48:48;9.40;;;3.90;;
55220;SDS011;41089;51.448;6.604;2023-05-03T22:54:53;10.20;;;3.67;;
55220;SDS011;41089;51.448;6.604;2023-05-03T23:00:54;10.18;;;4.18;;
55220;SDS011;41089;51.448;6.604;2023-05-03T23:06:55;6.32;;;4.10;;
55220;SDS011;41089;51.448;6.604;2023-05-03T23:12:56;6.00;;;3.90;;
55220;SDS011;41089;51.448;6.604;2023-05-03T23:18:57;9.75;;;4.88;;
55220;SDS011;41089;51.448;6.604;2023-05-03T23:24:57;11.73;;;5.05;;
55220;SDS011;41089;51.448;6.604;2023-05-03T23:30:59;8.57;;;3.95;;
55220;SDS011;41089;51.448;6.604;2023-05-03T23:36:59;11.48;;;4.70;;
55220;SDS011;41089;51.448;6.604;2023-05-03T23:43:00;7.97;;;4.32;;
55220;SDS011;41089;51.448;6.604;2023-05-03T23:49:00;7.82;;;4.70;;
55220;SDS011;41089;51.448;6.604;2023-05-03T23:55:01;8.33;;;5.37;;
